Time;durP1;ratioP1;P1;durP2;ratioP2;P2;SDS_P1;SDS_P2;PMS_P1;PMS_P2;Temp;Humidity;BMP_temperature;BMP_pressure;BME280_temperature;BME280_humidity;BME280_pressure;Samples;Min_cycle;Max_cycle;Signal;HPM_P1;HPM_P2
2022/03/10 00:00:32;;;;;;;5.80;4.60;;;3.40;99.90;;;;;;5104929;28;20197;-49
2022/03/10 00:02:59;;;;;;;8.80;4.60;;;3.40;99.90;;;;;;5087249;28;23523;-47
2022/03/10 00:05:27;;;;;;;8.40;4.90;;;3.40;99.90;;;;;;5097889;28;20554;-44
2022/03/10 00:07:53;;;;;;;4.87;4.37;;;3.40;99.90;;;;;;5094188;28;20716;-44
2022/03/10 00:10:20;;;;;;;5.57;4.20;;;3.50;99.90;;;;;;5105010;28;20749;-43
2022/03/10 00:12:49;;;;;;;8.30;4.60;;;3.60;99.90;;;;;;5100428;28;20224;-47
2022/03/10 00:15:17;;;;;;;6.67;4.53;;;3.60;99.90;;;;;;5103354;28;20197;-45
2022/03/10 00:17:44;;;;;;;6.40;4.70;;;3.60;99.90;;;;;;5100921;28;20201;-47
2022/03/10 00:20:12;;;;;;;7.13;5.17;;;3.70;99.90;;;;;;5080637;28;20212;-44
2022/03/10 00:22:50;;;;;;;7.83;5.10;;;3.70;99.90;;;;;;5098203;28;20228;-45
2022/03/10 00:25:17;;;;;;;7.07;4.47;;;3.70;99.90;;;;;;5097534;28;20205;-44
2022/03/10 00:27:44;;;;;;;7.33;4.90;;;3.70;99.90;;;;;;5100830;28;20197;-46
2022/03/10 00:30:11;;;;;;;7.20;5.17;;;3.70;99.90;;;;;;5103108;28;20193;-44
2022/03/10 00:32:45;;;;;;;8.47;5.30;;;3.70;99.90;;;;;;5103473;28;20236;-47
2022/03/10 00:35:18;;;;;;;7.10;5.30;;;3.70;99.90;;;;;;5082322;28;20227;-50
2022/03/10 00:37:46;;;;;;;6.90;5.20;;;3.70;99.90;;;;;;5100213;28;20205;-53
2022/03/10 00:40:14;;;;;;;7.10;5.07;;;3.70;99.90;;;;;;5097861;28;20288;-48
2022/03/10 00:42:44;;;;;;;8.40;5.37;;;3.70;99.90;;;;;;5102300;28;20210;-50
2022/03/10 00:45:13;;;;;;;8.93;5.20;;;3.70;99.90;;;;;;5103243;28;20189;-48
2022/03/10 00:47:40;;;;;;;8.20;5.27;;;3.80;99.90;;;;;;5102112;28;20212;-49
2022/03/10 00:50:11;;;;;;;6.50;4.80;;;3.80;99.90;;;;;;5085021;28;21426;-46
2022/03/10 00:52:41;;;;;;;7.17;5.17;;;3.80;99.90;;;;;;5098317;28;20236;-51
2022/03/10 00:55:10;;;;;;;6.57;4.80;;;3.70;99.90;;;;;;5096139;28;20197;-51
2022/03/10 00:57:39;;;;;;;7.80;5.47;;;3.70;99.90;;;;;;5102755;28;20201;-56
2022/03/10 01:00:08;;;;;;;6.73;5.50;;;3.70;99.90;;;;;;5102040;28;20921;-47
2022/03/10 01:02:35;;;;;;;8.63;5.90;;;3.60;99.90;;;;;;5103155;28;20213;-51
2022/03/10 01:05:03;;;;;;;6.77;5.57;;;3.60;99.90;;;;;;5100980;28;20197;-48
2022/03/10 01:07:30;;;;;;;8.07;5.53;;;3.50;99.90;;;;;;5083152;28;20208;-47
2022/03/10 01:09:57;;;;;;;8.97;6.00;;;3.50;99.90;;;;;;5094413;28;20193;-47
2022/03/10 01:12:23;;;;;;;10.13;5.53;;;3.50;99.90;;;;;;5103704;28;20232;-49
2022/03/10 01:14:52;;;;;;;6.27;5.37;;;3.40;99.90;;;;;;5100164;28;20303;-52
2022/03/10 01:17:19;;;;;;;6.90;5.07;;;3.40;99.90;;;;;;5101871;28;20189;-51
2022/03/10 01:19:46;;;;;;;5.87;5.00;;;3.40;99.90;;;;;;5100675;28;20644;-48
2022/03/10 01:22:13;;;;;;;5.80;5.00;;;3.40;99.90;;;;;;5087787;28;20257;-45
2022/03/10 01:24:41;;;;;;;6.90;5.03;;;3.30;99.90;;;;;;5100293;28;20212;-48
2022/03/10 01:27:08;;;;;;;8.20;5.57;;;3.30;99.90;;;;;;5097939;28;20199;-46
2022/03/10 01:29:35;;;;;;;8.37;5.73;;;3.30;99.90;;;;;;5102810;28;20227;-48
2022/03/10 01:32:04;;;;;;;9.30;5.60;;;3.30;99.90;;;;;;5100052;28;20281;-47
2022/03/10 01:34:31;;;;;;;8.50;5.97;;;3.20;99.90;;;;;;5102661;28;20664;-49
2022/03/10 01:36:58;;;;;;;7.57;5.63;;;3.20;99.90;;;;;;5084115;28;20208;-46
2022/03/10 01:39:25;;;;;;;6.50;5.30;;;3.20;99.90;;;;;;5103750;28;20604;-49
2022/03/10 01:41:52;;;;;;;7.63;5.23;;;3.10;99.90;;;;;;5093239;28;20211;-47
2022/03/10 01:44:21;;;;;;;7.23;5.83;;;3.10;99.90;;;;;;5103682;28;20207;-47
2022/03/10 01:46:48;;;;;;;7.57;5.93;;;3.10;99.90;;;;;;5099259;28;20661;-50
2022/03/10 01:49:16;;;;;;;9.07;5.77;;;3.10;99.90;;;;;;5097262;28;20200;-45
2022/03/10 01:51:44;;;;;;;8.53;5.57;;;3.00;99.90;;;;;;5091633;28;20227;-51
2022/03/10 01:54:11;;;;;;;6.73;5.50;;;3.00;99.90;;;;;;5097905;28;20188;-46
2022/03/10 01:56:39;;;;;;;6.27;5.33;;;3.00;99.90;;;;;;5095868;28;20210;-49
2022/03/10 01:59:06;;;;;;;8.50;6.20;;;3.00;99.90;;;;;;5100521;28;20195;-48
2022/03/10 02:01:34;;;;;;;7.73;5.87;;;2.90;99.90;;;;;;5103305;28;20591;-47
2022/03/10 02:04:02;;;;;;;6.40;5.37;;;2.90;99.90;;;;;;5100098;28;20197;-45
2022/03/10 02:06:30;;;;;;;6.00;5.20;;;2.90;99.90;;;;;;5102335;28;20555;-45
2022/03/10 02:11:43;;;;;;;10.17;6.10;;;2.80;99.90;;;;;;5098201;28;20296;-48
2022/03/10 02:19:38;;;;;;;8.07;5.87;;;2.80;99.90;;;;;;5096393;28;20287;-50
2022/03/10 02:22:09;;;;;;;6.43;4.80;;;2.70;99.90;;;;;;5100276;28;20211;-44
2022/03/10 02:24:37;;;;;;;7.80;6.00;;;2.70;99.90;;;;;;5087934;28;20223;-47
2022/03/10 02:27:14;;;;;;;9.50;5.57;;;2.60;99.90;;;;;;5093427;28;20242;-46
2022/03/10 02:29:42;;;;;;;7.07;5.17;;;2.60;99.90;;;;;;5097549;28;20197;-49
2022/03/10 02:32:09;;;;;;;7.57;5.60;;;2.60;99.90;;;;;;5099406;28;20265;-47
2022/03/10 02:34:36;;;;;;;11.93;5.70;;;2.60;99.90;;;;;;5102374;28;20809;-53
2022/03/10 02:37:03;;;;;;;6.60;5.23;;;2.60;99.90;;;;;;5103644;28;20199;-45
2022/03/10 02:39:32;;;;;;;8.60;6.00;;;2.50;99.90;;;;;;5106733;28;20210;-49
2022/03/10 02:41:59;;;;;;;7.93;5.77;;;2.50;99.90;;;;;;5090331;28;20288;-45
2022/03/10 02:44:26;;;;;;;8.60;5.70;;;2.40;99.90;;;;;;5101234;28;20212;-46
2022/03/10 02:46:53;;;;;;;5.63;4.67;;;2.40;99.90;;;;;;5101746;28;20273;-49
2022/03/10 02:49:20;;;;;;;7.90;5.90;;;2.40;99.90;;;;;;5106981;28;20200;-45
2022/03/10 02:51:47;;;;;;;8.73;5.97;;;2.40;99.90;;;;;;5102772;28;20577;-44
2022/03/10 02:54:14;;;;;;;9.27;5.47;;;2.40;99.90;;;;;;5106220;28;20196;-48
2022/03/10 02:56:42;;;;;;;7.73;5.50;;;2.30;99.90;;;;;;5090112;28;20208;-51
2022/03/10 02:59:10;;;;;;;8.17;5.40;;;2.30;99.90;;;;;;5099196;28;20212;-49
2022/03/10 03:01:37;;;;;;;8.50;5.77;;;2.30;99.90;;;;;;5105372;28;20674;-53
2022/03/10 03:04:05;;;;;;;10.37;5.77;;;2.20;99.90;;;;;;5103974;28;20207;-44
2022/03/10 03:06:31;;;;;;;7.83;6.10;;;2.20;99.90;;;;;;5105946;28;20228;-46
2022/03/10 03:08:58;;;;;;;6.73;5.63;;;2.10;99.90;;;;;;5102886;28;20203;-46
2022/03/10 03:11:25;;;;;;;7.67;5.70;;;2.10;99.90;;;;;;5091918;28;20215;-46
2022/03/10 03:13:54;;;;;;;7.40;5.53;;;2.10;99.90;;;;;;5096339;28;20798;-49
2022/03/10 03:16:20;;;;;;;8.47;5.70;;;2.00;99.90;;;;;;5104845;28;20204;-45
2022/03/10 03:18:47;;;;;;;10.33;6.80;;;2.00;99.90;;;;;;5102637;28;20218;-51
2022/03/10 03:21:14;;;;;;;9.50;5.53;;;1.90;99.90;;;;;;5102522;28;20200;-45
2022/03/10 03:23:41;;;;;;;6.20;5.57;;;1.90;99.90;;;;;;5099903;28;20225;-50
2022/03/10 03:26:08;;;;;;;7.40;5.30;;;1.90;99.90;;;;;;5089216;28;20204;-46
2022/03/10 03:28:35;;;;;;;7.70;6.03;;;1.80;99.90;;;;;;5105023;28;20210;-51
2022/03/10 03:31:04;;;;;;;7.43;5.63;;;1.80;99.90;;;;;;5097252;28;20197;-49
2022/03/10 03:33:31;;;;;;;8.30;6.07;;;1.80;99.90;;;;;;5105713;28;20220;-48
2022/03/10 03:35:58;;;;;;;7.83;5.73;;;1.70;99.90;;;;;;5100859;28;20208;-49
2022/03/10 03:38:25;;;;;;;7.33;5.73;;;1.60;99.90;;;;;;5105485;28;20208;-48
2022/03/10 03:40:51;;;;;;;10.73;6.13;;;1.60;99.90;;;;;;5100402;28;20192;-51
2022/03/10 03:43:18;;;;;;;8.67;6.50;;;1.60;99.90;;;;;;5090399;28;20224;-47
2022/03/10 03:45:45;;;;;;;9.40;6.07;;;1.60;99.90;;;;;;5095570;28;20200;-52
2022/03/10 03:48:13;;;;;;;7.50;5.63;;;1.60;99.90;;;;;;5103929;28;20207;-45
2022/03/10 03:50:40;;;;;;;8.87;6.00;;;1.60;99.90;;;;;;5101579;28;20578;-51
2022/03/10 03:53:07;;;;;;;9.87;5.63;;;1.60;99.90;;;;;;5103052;28;20219;-50
2022/03/10 03:55:33;;;;;;;10.53;6.80;;;1.60;99.90;;;;;;5104743;28;20207;-41
2022/03/10 03:58:00;;;;;;;10.23;6.53;;;1.50;99.90;;;;;;5086744;28;20224;-48
2022/03/10 04:00:27;;;;;;;8.53;6.53;;;1.50;99.90;;;;;;5104687;28;20215;-46
2022/03/10 04:02:54;;;;;;;7.80;5.53;;;1.50;99.90;;;;;;5100509;28;20215;-48
2022/03/10 04:05:23;;;;;;;10.83;6.27;;;1.60;99.90;;;;;;5105098;28;20201;-47
2022/03/10 04:07:50;;;;;;;8.50;6.53;;;1.60;99.90;;;;;;5100970;28;20210;-52
2022/03/10 04:10:17;;;;;;;12.10;6.33;;;1.60;99.90;;;;;;5105664;28;20195;-52
2022/03/10 04:12:44;;;;;;;10.10;6.67;;;1.60;99.90;;;;;;5102491;28;20270;-52
2022/03/10 04:15:11;;;;;;;9.43;6.80;;;1.60;99.90;;;;;;5083424;28;20211;-47
2022/03/10 04:17:38;;;;;;;9.53;6.23;;;1.70;99.90;;;;;;5102007;27;20223;-53
2022/03/10 04:20:08;;;;;;;10.33;6.83;;;1.70;99.90;;;;;;5101581;28;20206;-50
2022/03/10 04:22:36;;;;;;;8.70;6.10;;;1.60;99.90;;;;;;5103781;28;20259;-50
2022/03/10 04:25:05;;;;;;;8.93;6.63;;;1.60;99.90;;;;;;5101915;28;20191;-48
2022/03/10 04:27:32;;;;;;;11.47;7.00;;;1.60;99.90;;;;;;5103621;28;20230;-47
2022/03/10 04:29:59;;;;;;;9.93;7.43;;;1.60;99.90;;;;;;5079706;28;20284;-46
2022/03/10 04:32:25;;;;;;;11.17;6.73;;;1.60;99.90;;;;;;5104205;28;20639;-48
2022/03/10 04:34:53;;;;;;;11.43;6.13;;;1.70;99.90;;;;;;5099954;28;20194;-45
2022/03/10 04:37:20;;;;;;;11.20;6.97;;;1.70;99.90;;;;;;5103731;27;20203;-47
2022/03/10 04:39:48;;;;;;;12.43;7.27;;;1.70;99.90;;;;;;5100435;28;20728;-53
2022/03/10 04:42:15;;;;;;;12.27;7.73;;;1.60;99.90;;;;;;5103325;28;20213;-48
2022/03/10 04:44:41;;;;;;;9.57;7.07;;;1.60;99.90;;;;;;5094517;28;20197;-48
2022/03/10 04:47:08;;;;;;;11.93;7.37;;;1.60;99.90;;;;;;5089469;28;20198;-47
2022/03/10 04:49:58;;;;;;;10.73;7.43;;;1.60;99.90;;;;;;5100313;28;20339;-46
2022/03/10 04:52:26;;;;;;;12.17;7.33;;;1.60;99.90;;;;;;5103130;28;20242;-48
2022/03/10 04:54:56;;;;;;;12.40;7.63;;;1.60;99.90;;;;;;5099753;28;20199;-47
2022/03/10 04:57:22;;;;;;;10.63;6.90;;;1.60;99.90;;;;;;5102311;28;20282;-48
2022/03/10 04:59:49;;;;;;;11.90;7.87;;;1.50;99.90;;;;;;5099943;28;20666;-50
2022/03/10 05:02:17;;;;;;;16.07;8.67;;;1.50;99.90;;;;;;5083207;28;20819;-48
2022/03/10 05:04:44;;;;;;;11.83;8.00;;;1.50;99.90;;;;;;5101442;28;20199;-46
2022/03/10 05:07:11;;;;;;;11.07;7.23;;;1.50;99.90;;;;;;5102128;28;20203;-45
2022/03/10 05:09:38;;;;;;;11.23;6.53;;;1.50;99.90;;;;;;5103012;28;20203;-47
2022/03/10 05:12:07;;;;;;;12.80;7.53;;;1.50;99.90;;;;;;5101244;28;20815;-49
2022/03/10 05:14:34;;;;;;;16.10;8.50;;;1.40;99.90;;;;;;5103441;28;20222;-50
2022/03/10 05:17:02;;;;;;;11.33;7.30;;;1.40;99.90;;;;;;5085360;28;22168;-44
2022/03/10 05:19:29;;;;;;;10.90;7.33;;;1.40;99.90;;;;;;5097822;28;20218;-50
2022/03/10 05:21:57;;;;;;;13.93;7.20;;;1.40;99.90;;;;;;5099534;28;20215;-47
2022/03/10 05:24:24;;;;;;;13.60;8.27;;;1.40;99.90;;;;;;5103464;28;20197;-46
2022/03/10 05:26:51;;;;;;;10.57;7.67;;;1.40;99.90;;;;;;5098477;28;20203;-54
2022/03/10 05:29:19;;;;;;;12.23;7.47;;;1.40;99.90;;;;;;5103499;28;20191;-49
2022/03/10 05:31:46;;;;;;;10.77;7.77;;;1.40;99.90;;;;;;5100207;28;20221;-47
2022/03/10 05:34:13;;;;;;;16.27;8.50;;;1.30;99.90;;;;;;5087897;28;20219;-45
2022/03/10 05:36:40;;;;;;;13.27;7.13;;;1.40;99.90;;;;;;5100722;28;20205;-45
2022/03/10 05:39:07;;;;;;;13.10;7.73;;;1.30;99.90;;;;;;5101125;28;20208;-45
2022/03/10 05:41:33;;;;;;;12.27;8.20;;;1.40;99.90;;;;;;5102802;28;20529;-47
2022/03/10 05:44:00;;;;;;;12.43;7.90;;;1.30;99.90;;;;;;5099045;28;20954;-46
2022/03/10 05:46:28;;;;;;;14.40;8.17;;;1.30;99.90;;;;;;5102588;28;20550;-49
2022/03/10 05:48:55;;;;;;;13.50;8.07;;;1.30;99.90;;;;;;5084421;28;20197;-54
2022/03/10 05:51:22;;;;;;;12.30;7.83;;;1.30;99.90;;;;;;5103451;28;20194;-51
2022/03/10 05:53:49;;;;;;;11.60;7.70;;;1.30;99.90;;;;;;5099846;28;20967;-51
2022/03/10 05:56:16;;;;;;;12.20;7.47;;;1.30;99.90;;;;;;5098238;28;20264;-51
2022/03/10 05:58:43;;;;;;;10.73;7.30;;;1.30;99.90;;;;;;5096124;28;20222;-50
2022/03/10 06:01:10;;;;;;;12.00;8.07;;;1.30;99.90;;;;;;5102666;28;20228;-47
2022/03/10 06:03:38;;;;;;;11.63;9.00;;;1.30;99.90;;;;;;5084934;28;24151;-43
2022/03/10 06:06:05;;;;;;;11.43;7.67;;;1.30;99.90;;;;;;5102190;28;20262;-42
2022/03/10 06:08:31;;;;;;;15.23;8.57;;;1.30;99.90;;;;;;5099355;28;20205;-44
2022/03/10 06:10:58;;;;;;;14.70;9.10;;;1.30;99.90;;;;;;5106131;28;20203;-50
2022/03/10 06:13:27;;;;;;;12.70;8.57;;;1.30;99.90;;;;;;5102941;28;20582;-47
2022/03/10 06:15:54;;;;;;;12.70;7.93;;;1.40;99.90;;;;;;5106104;28;20218;-46
2022/03/10 06:18:21;;;;;;;11.67;7.73;;;1.40;99.90;;;;;;5095159;28;20541;-43
2022/03/10 06:20:49;;;;;;;15.60;9.13;;;1.40;99.90;;;;;;5098454;28;20281;-52
2022/03/10 06:23:15;;;;;;;13.33;8.33;;;1.40;99.90;;;;;;5105310;28;20229;-44
2022/03/10 06:25:43;;;;;;;14.30;8.57;;;1.40;99.90;;;;;;5104779;28;20256;-44
2022/03/10 06:28:10;;;;;;;11.60;8.03;;;1.50;99.90;;;;;;5105628;28;20278;-43
2022/03/10 06:30:36;;;;;;;13.67;8.37;;;1.50;99.90;;;;;;5102518;28;20273;-41
2022/03/10 06:33:03;;;;;;;15.77;9.57;;;1.50;99.90;;;;;;5106617;28;20254;-40
2022/03/10 06:35:30;;;;;;;12.73;8.40;;;1.60;99.90;;;;;;5088244;28;20207;-43
2022/03/10 06:37:58;;;;;;;17.00;8.17;;;1.60;99.90;;;;;;5105136;28;20202;-43
2022/03/10 06:40:24;;;;;;;15.50;9.27;;;1.60;99.90;;;;;;5103534;28;20205;-41
2022/03/10 06:42:51;;;;;;;15.00;8.83;;;1.70;99.90;;;;;;5106519;28;20236;-45
2022/03/10 06:45:18;;;;;;;13.57;8.87;;;1.70;99.90;;;;;;5104425;28;20195;-41
2022/03/10 06:47:44;;;;;;;13.97;8.03;;;1.80;99.90;;;;;;5102072;28;20200;-42
2022/03/10 06:50:12;;;;;;;13.93;8.07;;;1.90;99.90;;;;;;5102878;28;20592;-43
2022/03/10 06:52:38;;;;;;;21.43;13.07;;;2.00;99.90;;;;;;5091615;28;20321;-41
2022/03/10 06:55:07;;;;;;;12.37;8.90;;;2.10;99.90;;;;;;5103817;28;20211;-40
2022/03/10 06:57:34;;;;;;;13.17;8.73;;;2.20;99.90;;;;;;5102012;28;20192;-41
2022/03/10 07:00:01;;;;;;;10.47;7.77;;;2.30;99.90;;;;;;5105676;28;20205;-42
2022/03/10 07:02:28;;;;;;;14.63;8.17;;;2.30;99.90;;;;;;5087691;28;20236;-41
2022/03/10 07:04:55;;;;;;;13.73;8.33;;;2.40;99.90;;;;;;5102760;28;20223;-40
2022/03/10 07:07:22;;;;;;;13.97;8.77;;;2.50;99.90;;;;;;5069460;28;20210;-40
2022/03/10 07:09:49;;;;;;;11.07;7.97;;;2.60;99.90;;;;;;5100720;28;20306;-42
2022/03/10 07:12:17;;;;;;;13.00;8.50;;;2.70;99.90;;;;;;5094857;28;20232;-45
2022/03/10 07:14:44;;;;;;;13.47;8.73;;;2.80;99.90;;;;;;5099891;28;20243;-40
2022/03/10 07:17:11;;;;;;;12.17;8.40;;;2.90;99.90;;;;;;5103029;28;20652;-43
2022/03/10 07:19:38;;;;;;;18.63;10.70;;;3.00;99.90;;;;;;5095033;28;20210;-41
2022/03/10 07:22:05;;;;;;;13.07;8.50;;;3.10;99.90;;;;;;5091039;28;20242;-43
2022/03/10 07:24:32;;;;;;;11.37;8.17;;;3.20;99.90;;;;;;5093251;28;20208;-42
2022/03/10 07:26:59;;;;;;;11.33;7.83;;;3.20;99.90;;;;;;5098241;28;20191;-44
2022/03/10 07:29:27;;;;;;;12.23;8.33;;;3.40;99.90;;;;;;5097305;28;20679;-42
2022/03/10 07:31:53;;;;;;;13.67;8.23;;;3.50;99.90;;;;;;5100153;28;20286;-45
2022/03/10 07:34:20;;;;;;;10.97;8.00;;;3.60;99.90;;;;;;5095489;28;20623;-42
2022/03/10 07:36:47;;;;;;;11.80;7.87;;;3.70;99.90;;;;;;5103109;28;20192;-42
2022/03/10 07:39:14;;;;;;;12.50;7.83;;;3.80;99.90;;;;;;5081378;28;20209;-41
2022/03/10 07:41:40;;;;;;;14.57;7.50;;;3.90;99.90;;;;;;5102419;28;20285;-40
2022/03/10 07:44:07;;;;;;;13.00;8.07;;;3.90;99.90;;;;;;5096563;28;20294;-42
2022/03/10 07:46:36;;;;;;;12.97;8.20;;;4.00;99.90;;;;;;5093095;28;20200;-41
2022/03/10 07:49:03;;;;;;;14.13;8.67;;;4.10;99.90;;;;;;5104738;28;20199;-41
2022/03/10 07:51:31;;;;;;;17.03;8.90;;;4.20;99.90;;;;;;5100285;28;20201;-41
2022/03/10 07:53:57;;;;;;;14.37;8.47;;;4.30;99.90;;;;;;5087774;28;20225;-40
2022/03/10 07:56:24;;;;;;;13.67;9.13;;;4.40;99.90;;;;;;5099858;28;20208;-44
2022/03/10 07:58:51;;;;;;;13.13;8.37;;;4.50;99.90;;;;;;5103618;28;20223;-40
2022/03/10 08:01:18;;;;;;;10.37;7.23;;;4.60;99.90;;;;;;5091157;28;20207;-41
2022/03/10 08:03:48;;;;;;;15.63;8.53;;;4.60;99.90;;;;;;5098240;28;20208;-41
2022/03/10 08:06:15;;;;;;;12.27;7.77;;;4.60;99.90;;;;;;5102093;28;20200;-41
2022/03/10 08:08:43;;;;;;;12.33;8.20;;;4.70;99.90;;;;;;5100751;28;20912;-42
2022/03/10 08:11:10;;;;;;;10.70;7.73;;;4.70;99.90;;;;;;5088254;28;20884;-41
2022/03/10 08:13:38;;;;;;;13.40;8.53;;;4.90;99.90;;;;;;5100865;28;20221;-42
2022/03/10 08:16:05;;;;;;;15.73;8.67;;;5.00;99.90;;;;;;5092109;28;20205;-43
2022/03/10 08:18:32;;;;;;;10.97;8.27;;;5.10;99.90;;;;;;5096070;27;20193;-44
2022/03/10 08:21:02;;;;;;;11.83;8.07;;;5.20;99.90;;;;;;5103424;28;20197;-45
2022/03/10 08:23:28;;;;;;;11.10;7.53;;;5.40;99.90;;;;;;5098442;28;20237;-40
2022/03/10 08:25:55;;;;;;;11.50;7.67;;;5.50;99.90;;;;;;5090319;27;20201;-41
2022/03/10 08:28:23;;;;;;;17.50;10.20;;;5.60;99.90;;;;;;5093790;28;20197;-40
2022/03/10 08:30:49;;;;;;;11.57;7.80;;;5.60;99.90;;;;;;5096491;28;20210;-39
2022/03/10 08:33:17;;;;;;;11.83;8.37;;;5.70;99.90;;;;;;5093727;28;20221;-40
2022/03/10 08:35:43;;;;;;;11.60;8.23;;;5.80;99.90;;;;;;5101949;28;20309;-40
2022/03/10 08:38:13;;;;;;;15.17;7.90;;;5.90;99.90;;;;;;5103863;28;20217;-40
2022/03/10 08:40:39;;;;;;;11.17;7.87;;;6.00;99.90;;;;;;5084973;28;20209;-39
2022/03/10 08:43:08;;;;;;;10.67;7.50;;;6.00;99.90;;;;;;5096397;28;20225;-40
2022/03/10 08:45:35;;;;;;;10.07;7.80;;;6.10;99.90;;;;;;5093135;28;20209;-40
2022/03/10 08:48:01;;;;;;;11.73;7.67;;;6.20;99.90;;;;;;5103717;28;20288;-43
2022/03/10 08:50:28;;;;;;;10.83;7.07;;;6.30;99.90;;;;;;5089709;28;20206;-40
2022/03/10 08:52:55;;;;;;;12.70;7.37;;;6.40;99.90;;;;;;5102337;28;20221;-43
2022/03/10 08:55:23;;;;;;;10.60;7.63;;;6.60;99.90;;;;;;5097426;28;20301;-41
2022/03/10 08:57:50;;;;;;;11.70;7.77;;;6.70;99.90;;;;;;5085300;28;20632;-40
2022/03/10 09:00:19;;;;;;;12.57;7.47;;;6.80;99.90;;;;;;5093472;28;20665;-38
2022/03/10 09:02:45;;;;;;;11.17;7.33;;;6.90;99.90;;;;;;5098330;28;20292;-39
2022/03/10 09:05:13;;;;;;;14.63;8.03;;;7.00;99.90;;;;;;5095917;28;20194;-40
2022/03/10 09:07:40;;;;;;;11.13;8.40;;;7.10;99.90;;;;;;5098993;28;20197;-41
2022/03/10 09:10:08;;;;;;;11.13;8.20;;;7.20;99.90;;;;;;5101114;28;20205;-39
2022/03/10 09:12:36;;;;;;;14.57;8.03;;;7.30;99.90;;;;;;5084789;28;20682;-40
2022/03/10 09:15:05;;;;;;;10.80;8.30;;;7.40;99.90;;;;;;5094028;28;20213;-40
2022/03/10 09:17:32;;;;;;;10.03;7.40;;;7.50;99.90;;;;;;5091211;28;20203;-39
2022/03/10 09:19:59;;;;;;;11.67;7.33;;;7.60;99.90;;;;;;5095205;28;20670;-39
2022/03/10 09:22:26;;;;;;;8.03;6.80;;;7.70;99.90;;;;;;5093530;28;20227;-40
2022/03/10 09:24:53;;;;;;;11.83;7.93;;;7.90;99.90;;;;;;5100861;28;20197;-39
2022/03/10 09:27:20;;;;;;;8.50;6.47;;;8.00;99.90;;;;;;5095830;28;20194;-40
2022/03/10 09:29:48;;;;;;;9.53;7.00;;;8.20;99.90;;;;;;5079822;28;22754;-40
2022/03/10 09:32:14;;;;;;;10.63;6.30;;;8.30;99.90;;;;;;5095851;28;20231;-39
2022/03/10 09:34:41;;;;;;;9.87;7.40;;;8.40;99.90;;;;;;5100010;28;20208;-40
2022/03/10 09:37:07;;;;;;;13.07;6.60;;;8.40;99.90;;;;;;5095065;28;20201;-41
2022/03/10 09:39:34;;;;;;;9.93;7.03;;;8.60;99.90;;;;;;5099268;28;20902;-40
2022/03/10 09:42:05;;;;;;;8.70;6.67;;;8.60;99.90;;;;;;5096151;28;20223;-41
2022/03/10 09:44:34;;;;;;;10.93;7.83;;;8.80;99.90;;;;;;5084600;28;20892;-40
2022/03/10 09:47:04;;;;;;;8.23;6.17;;;9.00;99.90;;;;;;5095638;28;20198;-40
2022/03/10 09:49:34;;;;;;;10.20;6.70;;;9.00;99.80;;;;;;5097349;28;20216;-41
2022/03/10 09:52:01;;;;;;;8.57;6.47;;;9.10;99.10;;;;;;5096566;28;20539;-41
2022/03/10 09:54:29;;;;;;;6.77;5.87;;;9.20;98.60;;;;;;5095157;28;20941;-42
2022/03/10 09:56:56;;;;;;;9.03;6.73;;;9.40;98.40;;;;;;5102476;28;20228;-39
2022/03/10 09:59:23;;;;;;;8.50;6.57;;;9.40;97.70;;;;;;5096340;28;20278;-39
2022/03/10 10:01:50;;;;;;;8.77;6.53;;;9.40;97.30;;;;;;5079496;28;20266;-39
2022/03/10 10:04:22;;;;;;;11.97;7.30;;;9.50;97.00;;;;;;5097409;28;20190;-40
2022/03/10 10:07:02;;;;;;;10.77;6.70;;;9.60;97.00;;;;;;5092802;28;20212;-39
2022/03/10 10:09:40;;;;;;;10.07;6.73;;;9.70;96.40;;;;;;5093292;28;20211;-40
2022/03/10 10:12:08;;;;;;;9.57;6.33;;;9.80;96.00;;;;;;5100408;28;20221;-39
2022/03/10 10:14:37;;;;;;;11.27;6.90;;;10.00;96.20;;;;;;5094880;28;20220;-39
2022/03/10 10:17:04;;;;;;;11.03;7.17;;;10.10;95.30;;;;;;5087755;28;20216;-40
2022/03/10 10:19:34;;;;;;;10.57;6.97;;;10.00;94.50;;;;;;5091507;28;21004;-39
2022/03/10 10:22:16;;;;;;;12.40;8.03;;;10.10;94.10;;;;;;5096814;28;20759;-39
2022/03/10 10:24:50;;;;;;;11.00;6.90;;;10.10;93.40;;;;;;5100987;28;20196;-39
2022/03/10 10:27:19;;;;;;;10.50;7.03;;;10.10;92.20;;;;;;5098595;28;20257;-42
2022/03/10 10:29:51;;;;;;;10.07;6.40;;;10.20;93.00;;;;;;5101431;28;20529;-39
2022/03/10 10:32:31;;;;;;;11.37;6.93;;;10.30;91.70;;;;;;5081145;28;20217;-40
2022/03/10 10:35:01;;;;;;;10.37;6.70;;;10.40;91.80;;;;;;5100695;28;20215;-39
2022/03/10 10:37:28;;;;;;;10.53;7.20;;;10.50;91.60;;;;;;5091326;28;20189;-40
2022/03/10 10:39:58;;;;;;;15.17;7.00;;;10.50;90.90;;;;;;5098017;28;20204;-40
2022/03/10 10:42:29;;;;;;;8.87;6.60;;;10.60;91.00;;;;;;5099385;28;20217;-39
2022/03/10 10:44:59;;;;;;;10.27;6.93;;;10.60;90.50;;;;;;5094259;28;20549;-39
2022/03/10 10:47:27;;;;;;;11.83;6.60;;;10.70;90.90;;;;;;5086114;28;21112;-40
2022/03/10 10:50:01;;;;;;;10.90;6.87;;;10.80;90.10;;;;;;5074317;28;20205;-40
2022/03/10 10:52:39;;;;;;;13.47;7.30;;;10.80;89.00;;;;;;5094235;28;20222;-41
2022/03/10 10:55:10;;;;;;;10.77;6.80;;;10.80;88.70;;;;;;5094840;28;20213;-39
2022/03/10 10:57:38;;;;;;;10.80;7.27;;;10.80;89.40;;;;;;5095379;28;20669;-39
2022/03/10 11:00:10;;;;;;;9.67;7.33;;;10.90;89.60;;;;;;5103726;28;20202;-39
2022/03/10 11:02:43;;;;;;;8.73;6.87;;;10.90;88.40;;;;;;5088407;28;20574;-39
2022/03/10 11:05:14;;;;;;;8.97;6.97;;;10.90;87.90;;;;;;5099652;28;20208;-39
2022/03/10 11:07:42;;;;;;;8.30;6.77;;;10.90;86.80;;;;;;5095405;28;20205;-40
2022/03/10 11:10:11;;;;;;;10.57;7.37;;;10.90;86.20;;;;;;5098454;28;20280;-39
2022/03/10 11:12:41;;;;;;;13.30;7.10;;;10.90;86.50;;;;;;5096582;28;20304;-39
2022/03/10 11:15:09;;;;;;;8.93;7.03;;;10.90;85.80;;;;;;5103879;28;20213;-40
2022/03/10 11:17:38;;;;;;;11.13;7.40;;;10.90;85.00;;;;;;5090045;28;20319;-38
2022/03/10 11:20:09;;;;;;;10.40;7.20;;;10.90;85.30;;;;;;5096675;28;20778;-40
2022/03/10 11:22:53;;;;;;;9.83;7.20;;;10.90;84.70;;;;;;5095188;28;20213;-41
2022/03/10 11:25:38;;;;;;;9.10;6.27;;;11.00;83.50;;;;;;5097448;28;20209;-39
2022/03/10 11:28:11;;;;;;;15.37;7.20;;;11.10;84.30;;;;;;5097580;28;20201;-49
2022/03/10 11:30:38;;;;;;;9.57;6.73;;;11.10;84.40;;;;;;5095903;28;20197;-49
2022/03/10 11:33:09;;;;;;;9.67;7.27;;;11.10;83.80;;;;;;5090376;28;20274;-39
2022/03/10 11:35:39;;;;;;;8.73;6.83;;;11.00;83.60;;;;;;5097176;28;20213;-39
2022/03/10 11:38:10;;;;;;;15.07;7.13;;;11.10;82.70;;;;;;5086339;28;20641;-40
2022/03/10 11:40:45;;;;;;;10.27;7.57;;;11.10;82.60;;;;;;5098395;28;20206;-39
2022/03/10 11:43:17;;;;;;;10.73;6.37;;;11.20;82.10;;;;;;5089227;28;20211;-42
2022/03/10 11:45:44;;;;;;;9.40;6.63;;;11.30;81.40;;;;;;5093601;28;20208;-39
2022/03/10 11:48:36;;;;;;;12.30;7.50;;;11.20;80.10;;;;;;5083530;28;20202;-39
2022/03/10 11:51:10;;;;;;;13.67;7.63;;;11.40;80.00;;;;;;5090544;28;20205;-40
2022/03/10 11:53:59;;;;;;;12.90;6.93;;;11.40;78.50;;;;;;5098257;28;20221;-40
2022/03/10 11:57:05;;;;;;;9.33;6.47;;;11.40;79.50;;;;;;5094674;28;20277;-41
2022/03/10 11:59:49;;;;;;;13.00;6.80;;;11.50;80.60;;;;;;5090028;28;20580;-42
2022/03/10 12:02:46;;;;;;;11.40;7.33;;;11.60;81.00;;;;;;5099936;28;20217;-41
2022/03/10 12:05:14;;;;;;;9.37;7.40;;;11.60;79.90;;;;;;5084613;28;20839;-39
2022/03/10 12:07:43;;;;;;;9.77;6.70;;;11.70;79.80;;;;;;5096314;28;20238;-39
2022/03/10 12:10:14;;;;;;;8.17;6.77;;;11.80;79.40;;;;;;5096255;28;20284;-39
2022/03/10 12:12:42;;;;;;;7.77;6.40;;;11.90;79.60;;;;;;5096765;28;20242;-38
2022/03/10 12:15:49;;;;;;;9.40;6.50;;;11.90;78.80;;;;;;5094267;28;20216;-40
2022/03/10 12:18:29;;;;;;;10.60;7.50;;;11.90;76.20;;;;;;5096097;28;20219;-40
2022/03/10 12:20:57;;;;;;;10.70;7.03;;;11.90;75.90;;;;;;5082216;28;20205;-39
2022/03/10 12:23:26;;;;;;;10.60;6.83;;;11.80;77.70;;;;;;5101650;28;20240;-40
2022/03/10 12:26:00;;;;;;;9.47;6.30;;;12.00;76.10;;;;;;5100202;28;20658;-40
2022/03/10 12:28:31;;;;;;;9.07;6.57;;;11.90;75.50;;;;;;5096272;28;20246;-40
2022/03/10 12:31:04;;;;;;;8.90;6.93;;;12.00;76.00;;;;;;5094844;28;20211;-39
2022/03/10 12:33:31;;;;;;;8.73;6.60;;;12.10;75.40;;;;;;5102223;28;20217;-39
2022/03/10 12:36:00;;;;;;;9.73;7.50;;;12.10;75.70;;;;;;5088959;28;20221;-40
2022/03/10 12:38:37;;;;;;;8.50;7.20;;;12.20;74.70;;;;;;5099459;28;20213;-43
2022/03/10 12:41:06;;;;;;;8.40;6.80;;;12.20;74.50;;;;;;5099662;28;20974;-42
2022/03/10 12:43:33;;;;;;;9.43;7.47;;;12.30;75.30;;;;;;5096569;28;20232;-45
2022/03/10 12:46:01;;;;;;;10.03;6.80;;;12.30;75.30;;;;;;5091854;28;20258;-45
2022/03/10 12:48:33;;;;;;;8.07;6.60;;;12.30;73.40;;;;;;5103013;28;20662;-43
2022/03/10 12:51:00;;;;;;;8.97;6.70;;;12.30;71.90;;;;;;5097750;28;20189;-52
2022/03/10 12:53:32;;;;;;;11.00;7.97;;;12.30;72.90;;;;;;5080643;28;20217;-46
2022/03/10 12:56:01;;;;;;;8.63;7.20;;;12.30;72.60;;;;;;5098145;27;20213;-45
2022/03/10 12:58:33;;;;;;;10.13;7.47;;;12.30;73.50;;;;;;5099850;28;20221;-50
2022/03/10 13:01:06;;;;;;;9.43;7.13;;;12.30;72.10;;;;;;5086176;28;20204;-40
2022/03/10 13:03:37;;;;;;;11.77;7.23;;;12.20;71.30;;;;;;5102751;28;20222;-40